createdAt,value
2024-04-17T00:01:50.971Z,12.13
2024-04-17T00:04:36.914Z,12.55
2024-04-17T00:07:22.298Z,12.38
2024-04-17T00:10:07.544Z,8.48
2024-04-17T00:12:52.387Z,15.27
2024-04-17T00:15:37.499Z,14.48
2024-04-17T00:18:22.446Z,14.30
2024-04-17T00:21:07.580Z,9.55
2024-04-17T00:23:52.457Z,14.07
2024-04-17T00:26:37.514Z,11.50
2024-04-17T00:29:22.783Z,11.27
2024-04-17T00:32:08.584Z,17.15
2024-04-17T00:34:53.912Z,13.60
2024-04-17T00:37:38.865Z,10.85
2024-04-17T00:40:24.431Z,11.40
2024-04-17T00:43:09.368Z,10.32
2024-04-17T00:45:54.427Z,10.00
2024-04-17T00:48:39.132Z,13.75
2024-04-17T00:51:24.070Z,13.05
2024-04-17T00:54:09.269Z,9.98
2024-04-17T00:56:55.902Z,9.55
2024-04-17T00:59:41.685Z,8.43
2024-04-17T01:02:26.570Z,9.13
2024-04-17T01:05:12.009Z,9.27
2024-04-17T01:07:56.977Z,6.90
2024-04-17T01:10:42.500Z,8.70
2024-04-17T01:13:28.360Z,13.93
2024-04-17T01:16:13.472Z,11.73
2024-04-17T01:18:58.945Z,12.23
2024-04-17T01:21:43.975Z,8.77
2024-04-17T01:24:29.092Z,7.93
2024-04-17T01:27:13.849Z,9.60
2024-04-17T01:29:58.880Z,8.05
2024-04-17T01:32:44.038Z,13.07
2024-04-17T01:35:29.395Z,7.20
2024-04-17T01:38:14.312Z,9.38
2024-04-17T01:40:59.339Z,7.90
2024-04-17T01:43:44.753Z,7.18
2024-04-17T01:46:29.833Z,6.68
2024-04-17T01:49:15.059Z,5.30
2024-04-17T01:52:00.071Z,6.57
2024-04-17T01:54:45.172Z,6.00
2024-04-17T01:57:30.596Z,7.80
2024-04-17T02:00:16.059Z,5.95
2024-04-17T02:03:01.571Z,4.85
2024-04-17T02:05:47.076Z,7.68
2024-04-17T02:08:31.845Z,5.25
2024-04-17T02:11:16.990Z,8.45
2024-04-17T02:14:02.444Z,5.55
2024-04-17T02:16:47.739Z,8.43
2024-04-17T02:19:32.836Z,8.15
2024-04-17T02:22:17.703Z,10.23
2024-04-17T02:25:03.261Z,7.57
2024-04-17T02:27:48.380Z,8.15
2024-04-17T02:30:33.434Z,7.57
2024-04-17T02:33:18.247Z,6.00
2024-04-17T02:36:03.675Z,8.05
2024-04-17T02:38:48.628Z,6.85
2024-04-17T02:41:34.104Z,7.38
2024-04-17T02:44:19.027Z,7.28
2024-04-17T02:47:04.155Z,11.00
2024-04-17T02:49:49.477Z,8.57
2024-04-17T02:52:34.792Z,8.45
2024-04-17T02:55:20.213Z,7.82
2024-04-17T02:58:05.389Z,6.93
2024-04-17T03:00:50.867Z,11.02
2024-04-17T03:03:35.848Z,11.07
2024-04-17T03:06:21.019Z,10.07
2024-04-17T03:09:06.212Z,9.23
2024-04-17T03:11:51.845Z,13.10
2024-04-17T03:14:36.786Z,11.70
2024-04-17T03:17:21.970Z,9.43
2024-04-17T03:20:07.660Z,11.95
2024-04-17T03:22:52.806Z,10.93
2024-04-17T03:25:38.150Z,11.25
2024-04-17T03:28:23.068Z,11.52
2024-04-17T03:31:08.484Z,12.88
2024-04-17T03:33:53.398Z,9.35
2024-04-17T03:36:38.904Z,13.70
2024-04-17T03:39:23.850Z,15.15
2024-04-17T03:42:08.994Z,10.75
2024-04-17T03:44:53.776Z,15.15
2024-04-17T03:47:40.456Z,14.77
2024-04-17T03:50:25.733Z,11.07
2024-04-17T03:53:11.071Z,9.40
2024-04-17T03:55:56.462Z,8.43
2024-04-17T03:58:41.805Z,14.77
2024-04-17T04:01:27.577Z,9.80
2024-04-17T04:04:12.637Z,7.07
2024-04-17T04:06:58.739Z,7.13
2024-04-17T04:09:43.755Z,6.93
2024-04-17T04:12:28.788Z,13.13
2024-04-17T04:15:13.968Z,8.68
2024-04-17T04:17:58.922Z,10.63
2024-04-17T04:20:44.395Z,7.88
2024-04-17T04:23:29.337Z,14.60
2024-04-17T04:26:14.259Z,4.97
2024-04-17T04:28:59.278Z,6.78
2024-04-17T04:31:44.766Z,8.90
2024-04-17T04:34:30.379Z,8.75
2024-04-17T04:37:15.753Z,6.72
2024-04-17T04:40:02.103Z,7.90
2024-04-17T04:42:47.339Z,12.60
2024-04-17T04:45:32.124Z,8.02
2024-04-17T04:48:17.195Z,6.57
2024-04-17T04:51:02.349Z,5.03
2024-04-17T04:53:47.335Z,6.93
2024-04-17T04:56:32.530Z,7.20
2024-04-17T04:59:18.424Z,6.60
2024-04-17T05:02:03.585Z,8.35
2024-04-17T05:04:49.072Z,7.55
2024-04-17T05:07:34.304Z,10.35
2024-04-17T05:10:19.573Z,6.75
2024-04-17T05:13:05.215Z,6.70
2024-04-17T05:15:50.419Z,7.30
2024-04-17T05:18:35.496Z,8.65
2024-04-17T05:21:21.167Z,8.90
2024-04-17T05:24:06.031Z,5.20
2024-04-17T05:26:50.937Z,8.52
2024-04-17T05:29:35.811Z,5.43
2024-04-17T05:32:21.040Z,7.38
2024-04-17T05:35:06.508Z,9.27
2024-04-17T05:37:52.288Z,7.68
2024-04-17T05:40:38.066Z,8.90
2024-04-17T05:43:23.391Z,8.93
2024-04-17T05:46:08.885Z,3.55
2024-04-17T05:48:54.105Z,9.10
2024-04-17T05:51:39.331Z,4.40
2024-04-17T05:54:24.736Z,7.82
2024-04-17T05:57:10.247Z,7.88
2024-04-17T05:59:55.261Z,7.15
2024-04-17T06:02:40.676Z,10.63
2024-04-17T06:05:26.173Z,2.20
2024-04-17T06:08:11.170Z,7.00
2024-04-17T06:10:56.698Z,4.22
2024-04-17T06:13:42.146Z,6.25
2024-04-17T06:16:27.500Z,4.72
2024-04-17T06:19:12.879Z,9.65
2024-04-17T06:21:58.845Z,5.25
2024-04-17T06:24:44.175Z,7.78
2024-04-17T06:27:29.183Z,6.45
2024-04-17T06:30:16.940Z,7.82
2024-04-17T06:33:02.582Z,5.15
2024-04-17T06:35:47.994Z,5.57
2024-04-17T06:38:32.875Z,7.93
2024-04-17T06:41:18.226Z,8.68
2024-04-17T06:44:03.165Z,5.68
2024-04-17T06:46:48.387Z,4.35
2024-04-17T06:49:33.670Z,7.75
2024-04-17T06:52:19.066Z,5.57
2024-04-17T06:55:05.097Z,12.10
2024-04-17T06:57:50.153Z,6.22
2024-04-17T07:00:36.259Z,6.35
2024-04-17T07:03:22.833Z,7.05
2024-04-17T07:06:08.460Z,10.35
2024-04-17T07:08:53.392Z,5.15
2024-04-17T07:11:38.475Z,12.15
2024-04-17T07:14:23.948Z,5.95
2024-04-17T07:17:09.240Z,7.93
2024-04-17T07:19:54.152Z,6.10
2024-04-17T07:22:39.554Z,6.85
2024-04-17T07:25:24.783Z,7.47
2024-04-17T07:28:09.659Z,7.13
2024-04-17T07:30:55.129Z,5.90
2024-04-17T07:33:40.311Z,5.88
2024-04-17T07:36:25.220Z,8.35
2024-04-17T07:39:12.051Z,9.43
2024-04-17T07:41:57.267Z,6.50
2024-04-17T07:44:42.201Z,5.30
2024-04-17T07:47:27.397Z,8.02
2024-04-17T07:50:13.401Z,18.50
2024-04-17T07:52:58.447Z,9.52
2024-04-17T07:55:44.043Z,8.00
2024-04-17T07:58:29.576Z,12.32
2024-04-17T08:01:15.051Z,8.45
2024-04-17T08:04:00.249Z,10.82
2024-04-17T08:06:45.509Z,7.15
2024-04-17T08:09:30.671Z,12.57
2024-04-17T08:12:15.695Z,9.80
2024-04-17T08:15:01.082Z,8.68
2024-04-17T08:17:46.153Z,9.45
2024-04-17T08:20:32.118Z,6.45
2024-04-17T08:23:17.188Z,9.90
2024-04-17T08:26:02.024Z,5.97
2024-04-17T08:28:47.283Z,5.53
2024-04-17T08:31:32.732Z,12.55
2024-04-17T08:34:17.556Z,9.70
2024-04-17T08:37:02.867Z,7.97
2024-04-17T08:39:47.672Z,7.80
2024-04-17T08:42:36.687Z,3.53
2024-04-17T08:45:40.128Z,9.88
2024-04-17T08:48:34.473Z,3.53
2024-04-17T08:51:20.575Z,4.00
2024-04-17T08:54:07.413Z,7.43
2024-04-17T08:56:52.541Z,4.75
2024-04-17T08:59:37.769Z,12.43
2024-04-17T09:02:24.650Z,14.48
2024-04-17T09:05:10.008Z,6.00
2024-04-17T09:07:55.607Z,5.90
2024-04-17T09:10:41.247Z,9.65
2024-04-17T09:13:26.946Z,6.63
2024-04-17T09:16:12.210Z,5.00
2024-04-17T09:18:57.286Z,7.22
2024-04-17T09:21:42.230Z,6.13
2024-04-17T09:24:27.117Z,4.55
2024-04-17T09:27:14.397Z,5.03
2024-04-17T09:29:59.551Z,7.95
2024-04-17T09:32:44.744Z,4.35
2024-04-17T09:35:29.910Z,5.20
2024-04-17T09:38:17.909Z,3.03
2024-04-17T09:41:03.017Z,2.35
2024-04-17T09:43:50.520Z,4.95
2024-04-17T09:46:35.656Z,3.03
2024-04-17T09:49:21.924Z,6.30
2024-04-17T09:52:08.636Z,8.90
2024-04-17T09:54:53.757Z,4.85
2024-04-17T09:57:39.895Z,4.35
2024-04-17T10:00:25.490Z,2.13
2024-04-17T10:03:11.139Z,4.10
2024-04-17T10:05:56.298Z,3.88
2024-04-17T10:08:42.308Z,3.78
2024-04-17T10:11:28.340Z,3.78
2024-04-17T10:14:14.043Z,4.30
2024-04-17T10:16:59.037Z,2.17
2024-04-17T10:19:51.599Z,4.95
2024-04-17T10:22:37.999Z,2.35
2024-04-17T10:25:35.779Z,3.60
2024-04-17T10:28:25.811Z,1.58
2024-04-17T10:31:11.214Z,6.40
2024-04-17T10:33:58.660Z,5.35
2024-04-17T10:36:52.259Z,5.25
2024-04-17T10:39:40.879Z,2.17
2024-04-17T10:42:26.448Z,5.93
2024-04-17T10:45:12.201Z,4.90
2024-04-17T10:48:00.483Z,3.25
2024-04-17T10:50:45.818Z,4.75
2024-04-17T10:53:31.661Z,5.38
2024-04-17T10:56:17.696Z,3.08
2024-04-17T10:59:02.858Z,2.22
2024-04-17T11:01:48.297Z,8.15
2024-04-17T11:04:33.697Z,2.70
2024-04-17T11:07:19.295Z,3.75
2024-04-17T11:10:10.731Z,6.85
2024-04-17T11:12:55.715Z,4.15
2024-04-17T11:15:41.087Z,2.90
2024-04-17T11:18:26.052Z,2.20
2024-04-17T11:21:11.459Z,1.92
2024-04-17T11:23:56.967Z,3.05
2024-04-17T11:26:42.063Z,4.47
2024-04-17T11:29:33.860Z,4.72
2024-04-17T11:32:28.499Z,2.72
2024-04-17T11:35:16.070Z,1.67
2024-04-17T11:38:01.429Z,4.32
2024-04-17T11:40:46.914Z,5.20
2024-04-17T11:43:32.242Z,1.48
2024-04-17T11:46:19.613Z,7.55
2024-04-17T11:49:04.698Z,5.35
2024-04-17T11:51:49.655Z,3.38
2024-04-17T11:54:34.644Z,2.22
2024-04-17T11:57:19.800Z,2.15
2024-04-17T12:00:04.796Z,4.53
2024-04-17T12:02:50.246Z,2.15
2024-04-17T12:05:35.538Z,1.90
2024-04-17T12:08:20.456Z,4.53
2024-04-17T12:11:05.502Z,5.35
2024-04-17T12:13:50.684Z,0.98
2024-04-17T12:16:35.742Z,1.58
2024-04-17T12:19:21.226Z,4.68
2024-04-17T12:22:06.113Z,4.50
2024-04-17T12:25:10.114Z,3.95
2024-04-17T12:27:55.574Z,1.80
2024-04-17T12:30:40.363Z,2.22
2024-04-17T12:33:29.132Z,1.55
2024-04-17T12:36:14.278Z,1.30
2024-04-17T12:38:59.841Z,1.23
2024-04-17T12:41:44.721Z,2.72
2024-04-17T12:44:29.565Z,2.78
2024-04-17T12:47:14.770Z,2.60
2024-04-17T12:50:00.337Z,1.88
2024-04-17T12:52:45.651Z,2.65
2024-04-17T12:55:31.240Z,2.50
2024-04-17T12:58:16.094Z,1.30
2024-04-17T13:01:07.391Z,3.88
2024-04-17T13:03:52.813Z,2.72
2024-04-17T13:06:37.998Z,5.20
2024-04-17T13:09:23.965Z,5.50
2024-04-17T13:12:09.300Z,2.85
2024-04-17T13:14:54.610Z,2.83
2024-04-17T13:17:39.634Z,2.22
2024-04-17T13:20:24.969Z,2.67
2024-04-17T13:23:16.125Z,4.45
2024-04-17T13:26:02.825Z,7.07
2024-04-17T13:28:48.158Z,2.15
2024-04-17T13:31:33.475Z,4.13
2024-04-17T13:34:19.185Z,6.13
2024-04-17T13:37:05.361Z,3.13
2024-04-17T13:39:50.416Z,3.42
2024-04-17T13:42:35.169Z,1.75
2024-04-17T13:45:20.329Z,2.25
2024-04-17T13:48:05.942Z,3.60
2024-04-17T13:51:04.324Z,2.47
2024-04-17T13:53:53.736Z,1.40
2024-04-17T13:56:39.299Z,1.70
2024-04-17T13:59:24.506Z,2.33
2024-04-17T14:02:09.374Z,2.75
2024-04-17T14:04:54.937Z,2.95
2024-04-17T14:07:39.893Z,2.53
2024-04-17T14:10:29.137Z,4.47
2024-04-17T14:13:15.445Z,1.10
2024-04-17T14:16:03.867Z,1.40
2024-04-17T14:18:49.126Z,2.08
2024-04-17T14:21:34.276Z,2.80
2024-04-17T14:24:19.515Z,3.13
2024-04-17T14:27:04.895Z,1.73
2024-04-17T14:29:49.833Z,1.00
2024-04-17T14:32:35.749Z,1.13
2024-04-17T14:35:22.155Z,2.65
2024-04-17T14:38:07.147Z,1.88
2024-04-17T14:41:01.890Z,7.43
2024-04-17T14:43:46.842Z,1.85
2024-04-17T14:46:31.970Z,3.60
2024-04-17T14:49:17.096Z,4.13
2024-04-17T14:52:03.101Z,1.83
2024-04-17T14:54:49.044Z,1.85
2024-04-17T14:57:34.022Z,4.04
2024-04-17T15:00:18.855Z,3.05
2024-04-17T15:03:04.075Z,2.08
2024-04-17T15:05:49.680Z,1.40
2024-04-17T15:08:35.201Z,2.08
2024-04-17T15:11:20.320Z,3.22
2024-04-17T15:14:05.460Z,2.83
2024-04-17T15:16:50.360Z,1.05
2024-04-17T15:19:35.602Z,2.53
2024-04-17T15:22:20.917Z,1.05
2024-04-17T15:25:07.108Z,1.20
2024-04-17T15:27:52.541Z,2.65
2024-04-17T15:30:37.439Z,3.38
2024-04-17T15:33:30.143Z,3.22
2024-04-17T15:36:17.265Z,2.03
2024-04-17T15:39:02.293Z,0.75
2024-04-17T15:41:47.085Z,1.77
2024-04-17T15:44:32.351Z,3.45
2024-04-17T15:47:24.836Z,1.57
2024-04-17T15:50:10.424Z,4.05
2024-04-17T15:52:55.823Z,1.85
2024-04-17T15:55:41.316Z,1.38
2024-04-17T15:58:26.311Z,2.92
2024-04-17T16:01:12.761Z,1.05
2024-04-17T16:03:57.835Z,2.60
2024-04-17T16:06:43.333Z,0.65
2024-04-17T16:09:28.900Z,1.02
2024-04-17T16:12:14.243Z,4.22
2024-04-17T16:14:59.643Z,2.47
2024-04-17T16:17:44.880Z,1.33
2024-04-17T16:20:30.639Z,1.40
2024-04-17T16:23:16.393Z,1.05
2024-04-17T16:26:03.370Z,3.17
2024-04-17T16:28:51.112Z,2.67
2024-04-17T16:31:36.047Z,1.83
2024-04-17T16:34:21.012Z,0.90
2024-04-17T16:37:07.509Z,2.90
2024-04-17T16:39:52.663Z,2.05
2024-04-17T16:42:38.199Z,5.15
2024-04-17T16:45:23.447Z,1.35
2024-04-17T16:48:08.911Z,4.43
2024-04-17T16:50:57.087Z,3.65
2024-04-17T16:53:42.003Z,2.22
2024-04-17T16:56:27.258Z,1.33
2024-04-17T16:59:12.091Z,6.07
2024-04-17T17:01:58.144Z,4.20
2024-04-17T17:04:43.223Z,1.85
2024-04-17T17:07:29.288Z,3.22
2024-04-17T17:10:14.541Z,2.63
2024-04-17T17:12:59.587Z,1.40
2024-04-17T17:15:44.570Z,1.65
2024-04-17T17:18:30.349Z,4.57
2024-04-17T17:21:16.041Z,4.97
2024-04-17T17:24:01.237Z,4.07
2024-04-17T17:26:46.106Z,3.90
2024-04-17T17:29:31.022Z,5.22
2024-04-17T17:32:15.845Z,3.15
2024-04-17T17:35:01.108Z,2.03
2024-04-17T17:37:46.283Z,2.08
2024-04-17T17:40:31.225Z,5.28
2024-04-17T17:43:16.751Z,4.38
2024-04-17T17:46:05.402Z,2.22
2024-04-17T17:48:51.254Z,3.93
2024-04-17T17:51:36.652Z,2.47
2024-04-17T17:54:21.985Z,7.70
2024-04-17T17:57:07.606Z,3.17
2024-04-17T17:59:53.054Z,3.28
2024-04-17T18:05:23.129Z,9.02
2024-04-17T18:08:08.266Z,4.90
2024-04-17T18:10:53.879Z,4.22
2024-04-17T18:13:39.256Z,3.30
2024-04-17T18:16:32.569Z,14.07
2024-04-17T18:19:19.930Z,2.03
2024-04-17T18:22:05.415Z,1.13
2024-04-17T18:24:50.277Z,2.38
2024-04-17T18:27:35.245Z,4.82
2024-04-17T18:30:21.145Z,2.65
2024-04-17T18:33:06.292Z,2.88
2024-04-17T18:35:55.178Z,2.63
2024-04-17T18:38:43.897Z,2.47
2024-04-17T18:41:28.918Z,2.97
2024-04-17T18:44:14.682Z,1.63
2024-04-17T18:47:00.461Z,4.55
2024-04-17T18:49:47.188Z,1.45
2024-04-17T18:52:32.266Z,2.08
2024-04-17T18:55:17.086Z,4.03
2024-04-17T18:58:02.007Z,1.67
2024-04-17T19:00:46.896Z,2.13
2024-04-17T19:03:32.433Z,4.28
2024-04-17T19:06:21.085Z,2.47
2024-04-17T19:09:06.403Z,2.80
2024-04-17T19:11:51.453Z,2.03
2024-04-17T19:14:36.794Z,2.38
2024-04-17T19:17:21.825Z,2.40
2024-04-17T19:20:07.003Z,1.88
2024-04-17T19:22:51.829Z,3.95
2024-04-17T19:25:36.828Z,3.20
2024-04-17T19:28:23.361Z,2.63
2024-04-17T19:31:08.756Z,3.13
2024-04-17T19:33:53.794Z,4.15
2024-04-17T19:36:41.107Z,3.60
2024-04-17T19:39:27.039Z,3.13
2024-04-17T19:42:21.061Z,5.18
2024-04-17T19:45:11.918Z,3.20
2024-04-17T19:47:56.712Z,4.15
2024-04-17T19:50:42.015Z,3.15
2024-04-17T19:53:27.184Z,2.90
2024-04-17T19:56:13.860Z,5.95
2024-04-17T19:58:59.117Z,2.17
2024-04-17T20:01:43.940Z,3.42
2024-04-17T20:04:28.835Z,2.22
2024-04-17T20:07:14.112Z,4.20
2024-04-17T20:09:59.287Z,1.45
2024-04-17T20:12:44.792Z,1.85
2024-04-17T20:15:33.899Z,2.85
2024-04-17T20:18:19.445Z,3.55
2024-04-17T20:21:09.267Z,3.28
2024-04-17T20:23:54.710Z,3.28
2024-04-17T20:26:40.377Z,2.90
2024-04-17T20:29:25.417Z,2.95
2024-04-17T20:32:10.281Z,5.32
2024-04-17T20:34:55.784Z,3.58
2024-04-17T20:37:40.854Z,6.35
2024-04-17T20:40:25.989Z,1.73
2024-04-17T20:43:11.414Z,1.85
2024-04-17T20:45:57.327Z,4.43
2024-04-17T20:48:44.413Z,3.10
2024-04-17T20:51:29.844Z,2.90
2024-04-17T20:54:16.803Z,2.85
2024-04-17T20:57:02.054Z,7.22
2024-04-17T20:59:46.911Z,7.20
2024-04-17T21:02:31.757Z,5.57
2024-04-17T21:05:16.964Z,3.88
2024-04-17T21:08:02.293Z,4.05
2024-04-17T21:11:00.718Z,4.30
2024-04-17T21:13:46.126Z,5.28
2024-04-17T21:16:31.716Z,3.03
2024-04-17T21:19:16.711Z,3.30
2024-04-17T21:22:02.235Z,3.75
2024-04-17T21:24:47.736Z,2.47
2024-04-17T21:27:33.343Z,1.63
2024-04-17T21:30:19.019Z,2.70
2024-04-17T21:33:04.455Z,2.33
2024-04-17T21:35:53.076Z,2.92
2024-04-17T21:38:38.750Z,2.72
2024-04-17T21:41:23.849Z,3.35
2024-04-17T21:44:08.806Z,2.90
2024-04-17T21:46:56.685Z,1.92
2024-04-17T21:49:41.605Z,2.40
2024-04-17T21:52:26.705Z,1.52
2024-04-17T21:55:11.595Z,4.53
2024-04-17T21:57:56.640Z,2.70
2024-04-17T22:00:42.293Z,2.67
2024-04-17T22:03:28.247Z,2.15
2024-04-17T22:06:13.616Z,1.27
2024-04-17T22:08:59.025Z,1.83
2024-04-17T22:11:44.210Z,3.70
2024-04-17T22:14:32.450Z,4.03
2024-04-17T22:17:18.916Z,3.33
2024-04-17T22:20:04.589Z,3.67
2024-04-17T22:22:49.542Z,3.13
2024-04-17T22:25:34.567Z,4.28
2024-04-17T22:28:19.397Z,1.67
2024-04-17T22:31:04.523Z,4.18
2024-04-17T22:33:49.451Z,2.15
2024-04-17T22:36:34.695Z,3.80
2024-04-17T22:39:20.112Z,3.83
2024-04-17T22:42:05.126Z,1.50
2024-04-17T22:44:50.078Z,3.35
2024-04-17T22:47:36.322Z,3.47
2024-04-17T22:50:21.677Z,1.88
2024-04-17T22:53:06.797Z,3.03
2024-04-17T22:55:51.670Z,1.52
2024-04-17T22:58:36.545Z,2.00
2024-04-17T23:01:21.469Z,3.72
2024-04-17T23:04:07.146Z,3.53
2024-04-17T23:06:52.488Z,3.67
2024-04-17T23:09:37.872Z,2.65
2024-04-17T23:12:24.610Z,5.82
2024-04-17T23:15:11.047Z,4.22
2024-04-17T23:17:56.350Z,5.07
2024-04-17T23:20:41.762Z,2.03
2024-04-17T23:23:26.939Z,2.10
2024-04-17T23:26:11.919Z,8.45
2024-04-17T23:28:57.044Z,5.47
2024-04-17T23:31:42.337Z,3.45
2024-04-17T23:34:27.213Z,2.67
2024-04-17T23:37:12.341Z,1.67
2024-04-17T23:39:57.107Z,2.75
2024-04-17T23:42:42.890Z,1.60
2024-04-17T23:45:28.305Z,4.40
2024-04-17T23:48:14.827Z,2.45
2024-04-17T23:51:00.236Z,2.47
2024-04-17T23:53:45.215Z,2.20
2024-04-17T23:56:30.162Z,7.30
2024-04-17T23:59:15.141Z,4.43
